Flight Track Log - Related Links

Times and Time Zones

All times are in EDT time to prevent confusion due to time zone crossing. See the LXJ262 flight status page for this flight to view local times or setup timezone preferences in your user account.

Time Position Orientation Groundspeed Altitude Reporting Facility
EDT Latitude Longitude Course Direction KTS MPH feet Rate Location/Type
Tue 11:57:29 AM 38.0094 -84.6325 166° South 185 213 41,000  Level Indianapolis Center
Tue 11:58:31 AM 37.9642 -84.6186 166° South 196 226 8,300 -13,645 Descending Indianapolis Center
Tue 11:59:33 AM 37.9514 -84.5433 102° East 228 262 12,800 3,122 Climbing Indianapolis Center
Tue 12:00:34 PM 37.9642 -84.4511 80° East 266 306 14,700 1,073 Climbing Indianapolis Center
Tue 12:01:36 PM 37.9889 -84.2908 79° East 394 453 15,000 1,016 Climbing Indianapolis Center
Tue 12:02:38 PM 38.0103 -84.1519 79° East 399 459 16,800 1,403 Climbing Indianapolis Center
Tue 12:03:40 PM 38.0328 -84.0075 79° East 411 473 17,900 585 Climbing Indianapolis Center
Tue 12:04:41 PM 38.0550 -83.8628 79° East 417 480 18,000 195 Climbing Indianapolis Center
Tue 12:05:43 PM 38.0775 -83.7161 79° East 421 484 18,300 919 Climbing Indianapolis Center
Tue 12:06:45 PM 38.0992 -83.5650 80° East 432 497 19,900 1,694 Climbing Indianapolis Center
Tue 12:07:47 PM 38.1219 -83.4089 79° East 444 511 21,800 2,081 Climbing Indianapolis Center
Tue 12:08:49 PM 38.1492 -83.2214 79° East 460 529 24,200 2,032 Climbing Indianapolis Center
Tue 12:09:51 PM 38.1664 -83.0564 82° East 468 539 26,000 1,854 Climbing Indianapolis Center
Tue 12:10:52 PM 38.1789 -82.8869 85° East 478 550 28,000 1,463 Climbing Indianapolis Center
Tue 12:11:54 PM 38.1917 -82.7178 84° East 478 550 29,000 484 Climbing Indianapolis Center
Tue 12:12:56 PM 38.2031 -82.5492 85° East 478 550 29,000  Level Indianapolis Center
Tue 12:13:58 PM 38.2153 -82.3697 85° East 480 552 29,000  Level Indianapolis Center
Tue 12:14:59 PM 38.2269 -82.2017 85° East 479 551 29,000  Level Indianapolis Center
Tue 12:16:01 PM 38.2394 -82.0347 85° East 475 547 29,000  Level Indianapolis Center
Tue 12:17:03 PM 38.2506 -81.8658 85° East 482 555 29,000  Level Indianapolis Center
Tue 12:18:04 PM 38.2614 -81.6961 85° East 483 556 29,000  Level Indianapolis Center
Tue 12:19:06 PM 38.2736 -81.4928 86° East 485 558 29,000  Level Indianapolis Center
Tue 12:20:08 PM 38.2833 -81.3244 86° East 483 556 29,000  Level Indianapolis Center
Tue 12:21:09 PM 38.2933 -81.1547 86° East 485 558 29,000  Level Indianapolis Center
Tue 12:21:37 PM 38.2956 -81.0869 88° East 484 557 29,000  Level Washington Center
Tue 12:22:37 PM 38.3075 -80.9158 85° East 484 557 29,000  Level Washington Center
Tue 12:23:38 PM 38.3128 -80.7469 88° East 477 549 29,000  Level Washington Center
Tue 12:24:39 PM 38.3075 -80.5744 92° East 477 549 29,000  Level Washington Center
Tue 12:25:37 PM 38.3297 -80.3881 81° East 478 550 29,000  Level Washington Center
Tue 12:26:38 PM 38.3656 -80.2208 75° East 478 550 29,000  Level Washington Center
Tue 12:27:38 PM 38.3989 -80.0558 75° East 483 556 29,000  Level Washington Center
Tue 12:28:39 PM 38.4319 -79.8908 76° East 483 556 29,000 -99 Level Washington Center
Tue 12:29:39 PM 38.4672 -79.7233 75° East 483 556 28,800 -1,119 Descending Washington Center
Tue 12:30:37 PM 38.4992 -79.5739 75° East 489 563 26,800 -2,319 Descending Washington Center
Tue 12:31:38 PM 38.5294 -79.4189 76° East 476 548 24,200 -2,164 Descending Washington Center
Tue 12:32:39 PM 38.5547 -79.2767 77° East 441 507 22,400 -1,488 Descending Washington Center
Tue 12:33:39 PM 38.5758 -79.1239 80° East 407 468 21,200 -1,373 Descending Washington Center
Tue 12:34:37 PM 38.6006 -78.9894 77° East 394 453 19,700 -1,068 Descending Washington Center
Tue 12:35:37 PM 38.6211 -78.8575 79° East 381 438 19,100 -347 Descending Washington Center
Tue 12:36:38 PM 38.6447 -78.7469 75° East 376 433 19,000 -843 Descending Washington Center
Tue 12:37:38 PM 38.6728 -78.6336 72° East 348 400 17,400 -2,288 Descending Washington Center
Tue 12:38:36 PM 38.6983 -78.5231 73° East 329 379 14,500 -2,773 Descending Washington Center
Tue 12:39:37 PM 38.7217 -78.4228 73° East 307 353 11,900 -2,361 Descending Washington Center
Tue 12:40:38 PM 38.7694 -78.3422 53° Northeast 292 336 9,700 -2,083 Descending Washington Center
Tue 12:41:38 PM 38.8311 -78.2831 37° Northeast 275 316 7,700 -2,000 Descending Washington Center
Tue 12:42:38 PM 38.8928 -78.2267 35° Northeast 265 305 5,700 -1,339 Descending Washington Center
Tue 12:43:39 PM 38.9525 -78.1675 38° Northeast 265 305 5,000 -350 Descending Washington Center
Tue 12:44:38 PM 39.0036 -78.1211 35° Northeast 250 288 5,000 50 Level Washington Center
Tue 12:45:39 PM 39.0567 -78.0750 34° Northeast 237 273 5,100 -151 Climbing Washington Center
Tue 12:46:37 PM 39.0911 -78.0172 52° Northeast 215 247 4,700 -692 Descending Washington Center
Tue 12:48:41 PM 39.1500 -77.8833 60° Northeast 203 234 3,000 -573 Descending Potomac TRACON
Tue 12:49:35 PM 39.1833 -77.8167 57° Northeast 197 227 3,000  Level Potomac TRACON
Tue 12:50:35 PM 39.2167 -77.7667 49° Northeast 191 220 3,000 50 Level Potomac TRACON
Tue 12:51:36 PM 39.2333 -77.7000 72° East 200 230 3,100  Climbing Potomac TRACON
Tue 12:52:42 PM 39.2333 -77.6333 90° East 188 216 3,000 -238 Descending Potomac TRACON
Tue 12:53:42 PM 39.1833 -77.6000 153° Southeast 158 182 2,600 -650 Descending Potomac TRACON
Tue 12:54:42 PM 39.1500 -77.5833 159° South 152 175 1,700 -842 Descending Potomac TRACON
Tue 12:55:36 PM 39.1167 -77.5667 159° South 151 174 1,000 -574 Descending Potomac TRACON
Tue 12:56:37 PM 39.0667 -77.5500 165° South 144 166 600 -198 Descending Potomac TRACON
Tue 12:57:37 PM 39.0667 -77.5500 165° South 129 148 600  Level Potomac TRACON
Tue 12:59:00 PM 39.0780 -77.5575 180° South  Level Estimated
Tue 01:06:00 PM 39.0780 -77.5575 180° South  Level Estimated
Tue 01:07:00 PM 39.0780 -77.5575 180° South  Level Estimated
Tue 01:08:00 PM 39.0780 -77.5575 180° South  Level Estimated

Login

Don't have an account? Register now (free) for customized features, flight alerts, and more!